createdAt,value
2023-04-05T00:02:18.814Z,102507.16
2023-04-05T00:04:52.297Z,102503.56
2023-04-05T00:07:21.641Z,102512.06
2023-04-05T00:09:50.342Z,102501.25
2023-04-05T00:12:18.144Z,102507.06
2023-04-05T00:14:46.462Z,102506.16
2023-04-05T00:17:14.315Z,102501.44
2023-04-05T00:19:43.204Z,102498.22
2023-04-05T00:22:12.348Z,102490.91
2023-04-05T00:24:42.036Z,102493.97
2023-04-05T00:27:10.062Z,102498.09
2023-04-05T00:29:37.899Z,102493.59
2023-04-05T00:32:06.238Z,102487.91
2023-04-05T00:34:34.323Z,102489.06
2023-04-05T00:37:02.063Z,102492.78
2023-04-05T00:39:31.122Z,102489.44
2023-04-05T00:41:58.828Z,102489.59
2023-04-05T00:44:26.657Z,102489.41
2023-04-05T00:46:54.468Z,102489.09
2023-04-05T00:49:22.338Z,102487.09
2023-04-05T00:51:50.778Z,102487.84
2023-04-05T00:54:19.602Z,102483.47
2023-04-05T00:56:48.800Z,102477.72
2023-04-05T00:59:16.544Z,102478.84
2023-04-05T01:01:55.156Z,102476.56
2023-04-05T01:04:26.337Z,102470.34
2023-04-05T01:07:06.071Z,102474.66
2023-04-05T01:09:54.808Z,102467.94
2023-04-05T01:12:28.325Z,102465.88
2023-04-05T01:14:56.784Z,102470.28
2023-04-05T01:17:28.313Z,102465.19
2023-04-05T01:19:59.436Z,102475.78
2023-04-05T01:23:00.991Z,102470.59
2023-04-05T01:25:48.568Z,102465.69
2023-04-05T01:28:49.820Z,102464.00
2023-04-05T01:31:38.559Z,102457.53
2023-04-05T01:34:14.681Z,102460.50
2023-04-05T01:36:47.136Z,102466.16
2023-04-05T01:39:18.456Z,102456.97
2023-04-05T01:41:46.184Z,102454.59
2023-04-05T01:44:13.992Z,102454.19
2023-04-05T01:46:43.402Z,102449.03
2023-04-05T01:49:11.746Z,102447.72
2023-04-05T01:51:42.013Z,102444.91
2023-04-05T01:54:09.842Z,102443.25
2023-04-05T01:56:37.739Z,102446.50
2023-04-05T01:59:05.546Z,102429.59
2023-04-05T02:01:33.577Z,102429.19
2023-04-05T02:04:02.981Z,102426.47
2023-04-05T02:06:32.001Z,102424.19
2023-04-05T02:08:59.752Z,102422.91
2023-04-05T02:11:27.538Z,102427.50
2023-04-05T02:13:55.285Z,102419.28
2023-04-05T02:16:23.360Z,102420.84
2023-04-05T02:18:51.212Z,102418.38
2023-04-05T02:21:21.885Z,102413.59
2023-04-05T02:23:49.724Z,102410.78
2023-04-05T02:26:17.447Z,102407.34
2023-04-05T02:28:45.279Z,102407.22
2023-04-05T02:31:13.224Z,102411.97
2023-04-05T02:33:41.502Z,102398.50
2023-04-05T02:36:10.412Z,102397.56
2023-04-05T02:38:39.515Z,102395.34
2023-04-05T02:41:09.952Z,102398.19
2023-04-05T02:43:37.714Z,102393.03
2023-04-05T02:46:05.584Z,102393.84
2023-04-05T02:48:33.759Z,102393.31
2023-04-05T02:51:01.582Z,102384.13
2023-04-05T02:53:29.270Z,102388.47
2023-04-05T02:55:59.857Z,102388.31
2023-04-05T02:58:28.498Z,102379.41
2023-04-05T03:00:56.301Z,102386.97
2023-04-05T03:03:24.743Z,102381.84
2023-04-05T03:06:00.409Z,102376.91
2023-04-05T03:08:28.789Z,102378.44
2023-04-05T03:10:57.889Z,102375.13
2023-04-05T03:13:25.766Z,102372.63
2023-04-05T03:15:55.163Z,102369.88
2023-04-05T03:18:25.700Z,102374.75
2023-04-05T03:20:56.805Z,102370.56
2023-04-05T03:23:27.358Z,102367.94
2023-04-05T03:25:57.158Z,102367.72
2023-04-05T03:28:26.346Z,102365.16
2023-04-05T03:30:54.309Z,102359.25
2023-04-05T03:33:22.630Z,102358.22
2023-04-05T03:35:50.490Z,102351.81
2023-04-05T03:38:18.595Z,102348.47
2023-04-05T03:40:46.594Z,102343.28
2023-04-05T03:43:14.424Z,102342.16
2023-04-05T03:45:43.663Z,102342.53
2023-04-05T03:48:11.716Z,102338.53
2023-04-05T03:50:39.427Z,102339.03
2023-04-05T03:53:07.602Z,102344.56
2023-04-05T03:55:35.290Z,102341.72
2023-04-05T03:58:02.985Z,102343.69
2023-04-05T04:00:30.714Z,102343.59
2023-04-05T04:02:59.825Z,102344.09
2023-04-05T04:05:27.879Z,102336.84
2023-04-05T04:07:55.691Z,102336.06
2023-04-05T04:10:23.410Z,102332.81
2023-04-05T04:12:51.105Z,102331.88
2023-04-05T04:15:19.328Z,102338.31
2023-04-05T04:17:47.081Z,102340.03
2023-04-05T04:20:16.213Z,102343.66
2023-04-05T04:22:43.904Z,102344.72
2023-04-05T04:25:14.693Z,102343.44
2023-04-05T04:27:44.612Z,102342.34
2023-04-05T04:30:15.728Z,102342.44
2023-04-05T04:32:53.698Z,102347.53
2023-04-05T04:35:25.796Z,102352.91
2023-04-05T04:37:57.928Z,102351.28
2023-04-05T04:40:26.872Z,102348.03
2023-04-05T04:42:54.800Z,102346.28
2023-04-05T04:45:22.528Z,102348.38
2023-04-05T04:47:53.630Z,102348.25
2023-04-05T04:50:23.052Z,102350.03
2023-04-05T04:52:50.811Z,102346.75
2023-04-05T04:55:18.552Z,102350.50
2023-04-05T04:57:46.283Z,102344.91
2023-04-05T05:00:15.623Z,102351.16
2023-04-05T05:02:44.176Z,102339.06
2023-04-05T05:05:12.768Z,102342.06
2023-04-05T05:07:42.806Z,102344.47
2023-04-05T05:10:12.119Z,102339.38
2023-04-05T05:12:40.205Z,102327.56
2023-04-05T05:15:09.522Z,102332.72
2023-04-05T05:17:37.567Z,102339.56
2023-04-05T05:20:10.052Z,102340.03
2023-04-05T05:22:38.618Z,102345.91
2023-04-05T05:25:09.982Z,102331.81
2023-04-05T05:27:37.691Z,102330.59
2023-04-05T05:30:06.226Z,102337.47
2023-04-05T05:32:33.971Z,102335.22
2023-04-05T05:35:02.218Z,102346.31
2023-04-05T05:37:34.063Z,102342.03
2023-04-05T05:40:02.619Z,102339.44
2023-04-05T05:42:32.524Z,102331.75
2023-04-05T05:45:04.110Z,102331.84
2023-04-05T05:47:31.913Z,102328.19
2023-04-05T05:49:59.790Z,102327.94
2023-04-05T05:52:27.549Z,102331.84
2023-04-05T05:54:55.238Z,102331.31
2023-04-05T05:57:23.012Z,102336.50
2023-04-05T05:59:52.094Z,102338.63
2023-04-05T06:02:20.672Z,102334.88
2023-04-05T06:04:49.695Z,102325.56
2023-04-05T06:07:17.532Z,102328.56
2023-04-05T06:09:45.999Z,102321.56
2023-04-05T06:12:13.784Z,102324.16
2023-04-05T06:14:41.490Z,102324.38
2023-04-05T06:17:10.665Z,102329.78
2023-04-05T06:19:38.424Z,102327.16
2023-04-05T06:22:06.146Z,102331.03
2023-04-05T06:24:34.015Z,102331.00
2023-04-05T06:27:02.201Z,102329.19
2023-04-05T06:29:31.184Z,102334.75
2023-04-05T06:31:58.913Z,102334.56
2023-04-05T06:34:28.065Z,102330.91
2023-04-05T06:36:55.941Z,102330.56
2023-04-05T06:39:23.669Z,102322.19
2023-04-05T06:41:51.439Z,102325.75
2023-04-05T06:44:19.190Z,102331.75
2023-04-05T06:46:46.933Z,102321.50
2023-04-05T06:49:14.679Z,102310.31
2023-04-05T06:51:43.757Z,102325.81
2023-04-05T06:54:11.956Z,102318.31
2023-04-05T06:56:40.074Z,102316.47
2023-04-05T06:59:07.849Z,102322.25
2023-04-05T07:01:35.871Z,102310.25
2023-04-05T07:04:03.708Z,102307.09
2023-04-05T07:06:33.915Z,102302.47
2023-04-05T07:09:03.945Z,102298.59
2023-04-05T07:11:32.741Z,102309.53
2023-04-05T07:14:00.849Z,102306.19
2023-04-05T07:16:29.070Z,102310.31
2023-04-05T07:18:57.492Z,102308.97
2023-04-05T07:21:27.087Z,102307.88
2023-04-05T07:23:56.101Z,102303.06
2023-04-05T07:26:25.203Z,102310.59
2023-04-05T07:28:55.039Z,102293.63
2023-04-05T07:31:22.752Z,102296.25
2023-04-05T07:33:50.483Z,102286.66
2023-04-05T07:36:18.237Z,102281.81
2023-04-05T07:38:46.004Z,102285.19
2023-04-05T07:41:16.525Z,102276.94
2023-04-05T07:43:45.628Z,102283.63
2023-04-05T07:46:13.481Z,102279.75
2023-04-05T07:48:41.535Z,102287.34
2023-04-05T07:51:11.192Z,102290.97
2023-04-05T07:53:39.283Z,102276.50
2023-04-05T07:56:08.178Z,102283.28
2023-04-05T07:58:36.601Z,102279.06
2023-04-05T08:01:06.129Z,102268.28
2023-04-05T08:03:35.162Z,102277.31
2023-04-05T08:06:11.413Z,102285.00
2023-04-05T08:08:39.385Z,102273.38
2023-04-05T08:11:07.178Z,102277.31
2023-04-05T08:13:34.950Z,102275.09
2023-04-05T08:16:02.908Z,102274.06
2023-04-05T08:18:32.014Z,102273.59
2023-04-05T08:20:59.784Z,102277.69
2023-04-05T08:23:28.300Z,102270.22
2023-04-05T08:25:56.071Z,102263.03
2023-04-05T08:28:23.841Z,102279.97
2023-04-05T08:30:54.608Z,102273.72
2023-04-05T08:33:22.348Z,102276.78
2023-04-05T08:35:51.523Z,102260.19
2023-04-05T08:38:19.310Z,102266.31
2023-04-05T08:40:48.448Z,102262.69
2023-04-05T08:43:24.006Z,102251.25
2023-04-05T08:45:53.108Z,102252.94
2023-04-05T08:48:21.797Z,102245.94
2023-04-05T08:50:54.665Z,102258.31
2023-04-05T08:53:22.618Z,102253.16
2023-04-05T08:55:52.006Z,102255.81
2023-04-05T08:58:22.457Z,102253.19
2023-04-05T09:00:51.902Z,102251.47
2023-04-05T09:03:23.018Z,102252.09
2023-04-05T09:05:53.365Z,102242.78
2023-04-05T09:08:22.303Z,102246.38
2023-04-05T09:10:52.333Z,102236.75
2023-04-05T09:13:20.597Z,102244.97
2023-04-05T09:15:48.797Z,102235.13
2023-04-05T09:18:25.971Z,102251.63
2023-04-05T09:21:04.057Z,102235.81
2023-04-05T09:23:31.821Z,102233.34
2023-04-05T09:25:59.628Z,102242.56
2023-04-05T09:28:43.149Z,102238.19
2023-04-05T09:31:10.983Z,102240.66
2023-04-05T09:33:39.276Z,102245.22
2023-04-05T09:36:08.956Z,102246.28
2023-04-05T09:38:47.635Z,102229.84
2023-04-05T09:41:15.487Z,102233.16
2023-04-05T09:43:43.890Z,102227.34
2023-04-05T09:46:31.236Z,102225.31
2023-04-05T09:48:59.669Z,102226.28
2023-04-05T09:51:35.906Z,102229.25
2023-04-05T09:54:06.059Z,102224.34
2023-04-05T09:56:37.220Z,102225.06
2023-04-05T09:59:10.622Z,102234.06
2023-04-05T10:01:41.227Z,102229.34
2023-04-05T10:04:09.873Z,102222.97
2023-04-05T10:06:40.605Z,102234.28
2023-04-05T10:09:09.760Z,102231.22
2023-04-05T10:11:38.490Z,102239.19
2023-04-05T10:14:07.605Z,102223.16
2023-04-05T10:16:44.763Z,102233.84
2023-04-05T10:19:19.836Z,102225.97
2023-04-05T10:21:50.254Z,102211.03
2023-04-05T10:24:24.426Z,102232.41
2023-04-05T10:27:04.243Z,102215.41
2023-04-05T10:29:39.348Z,102222.00
2023-04-05T10:32:15.025Z,102220.69
2023-04-05T10:34:46.621Z,102213.88
2023-04-05T10:37:36.645Z,102212.06
2023-04-05T10:40:09.992Z,102193.63
2023-04-05T10:42:44.192Z,102206.69
2023-04-05T10:45:15.697Z,102188.75
2023-04-05T10:47:49.834Z,102200.66
2023-04-05T10:50:23.905Z,102186.72
2023-04-05T10:52:54.253Z,102195.50
2023-04-05T10:55:22.574Z,102184.06
2023-04-05T10:57:51.581Z,102171.28
2023-04-05T11:00:20.485Z,102167.75
2023-04-05T11:02:50.465Z,102172.97
2023-04-05T11:05:32.999Z,102169.16
2023-04-05T11:08:09.860Z,102174.63
2023-04-05T11:10:39.066Z,102174.88
2023-04-05T11:13:10.066Z,102174.13
2023-04-05T11:15:38.367Z,102170.03
2023-04-05T11:18:10.980Z,102151.13
2023-04-05T11:20:46.833Z,102146.59
2023-04-05T11:23:18.669Z,102136.41
2023-04-05T11:25:51.021Z,102139.22
2023-04-05T11:28:31.954Z,102152.34
2023-04-05T11:31:13.968Z,102151.16
2023-04-05T11:34:00.028Z,102143.47
2023-04-05T11:36:38.129Z,102145.19
2023-04-05T11:39:25.982Z,102149.91
2023-04-05T11:42:02.146Z,102140.19
2023-04-05T11:44:34.249Z,102148.59
2023-04-05T11:47:05.416Z,102133.03
2023-04-05T11:49:34.669Z,102157.25
2023-04-05T11:52:12.220Z,102148.09
2023-04-05T11:54:45.925Z,102146.59
2023-04-05T11:57:16.061Z,102157.47
2023-04-05T11:59:44.591Z,102162.50
2023-04-05T12:02:12.346Z,102156.88
2023-04-05T12:04:40.717Z,102165.53
2023-04-05T12:07:13.819Z,102162.50
2023-04-05T12:10:08.480Z,102152.16
2023-04-05T12:12:38.458Z,102165.00
2023-04-05T12:15:09.388Z,102157.03
2023-04-05T12:17:44.379Z,102154.09
2023-04-05T12:20:13.498Z,102157.75
2023-04-05T12:22:42.987Z,102155.47
2023-04-05T12:25:12.593Z,102161.47
2023-04-05T12:27:40.929Z,102140.91
2023-04-05T12:30:10.964Z,102150.09
2023-04-05T12:32:42.765Z,102128.84
2023-04-05T12:35:14.491Z,102136.56
2023-04-05T12:37:42.368Z,102125.19
2023-04-05T12:40:12.841Z,102139.41
2023-04-05T12:42:41.843Z,102131.53
2023-04-05T12:45:13.352Z,102133.44
2023-04-05T12:47:52.289Z,102133.16
2023-04-05T12:50:26.018Z,102126.00
2023-04-05T12:52:55.545Z,102119.34
2023-04-05T12:55:24.997Z,102131.69
2023-04-05T12:57:59.476Z,102124.72
2023-04-05T13:00:29.023Z,102139.78
2023-04-05T13:03:00.090Z,102142.69
2023-04-05T13:05:29.558Z,102140.44
2023-04-05T13:07:57.384Z,102134.72
2023-04-05T13:10:27.504Z,102128.50
2023-04-05T13:12:55.408Z,102119.53
2023-04-05T13:15:23.493Z,102108.53
2023-04-05T13:17:53.200Z,102109.72
2023-04-05T13:20:21.571Z,102109.44
2023-04-05T13:22:49.343Z,102109.41
2023-04-05T13:25:17.504Z,102090.19
2023-04-05T13:27:46.705Z,102104.00
2023-04-05T13:30:14.725Z,102097.75
2023-04-05T13:32:42.567Z,102097.22
2023-04-05T13:35:11.023Z,102103.44
2023-04-05T13:37:39.285Z,102086.19
2023-04-05T13:40:08.466Z,102104.34
2023-04-05T13:42:36.267Z,102095.41
2023-04-05T13:45:06.180Z,102105.84
2023-04-05T13:47:33.910Z,102097.09
2023-04-05T13:50:02.724Z,102083.84
2023-04-05T13:52:30.499Z,102099.81
2023-04-05T13:55:03.243Z,102092.75
2023-04-05T13:57:31.891Z,102097.66
2023-04-05T13:59:59.822Z,102092.03
2023-04-05T14:02:29.466Z,102095.16
2023-04-05T14:04:57.304Z,102087.25
2023-04-05T14:07:25.316Z,102089.81
2023-04-05T14:09:53.102Z,102085.03
2023-04-05T14:12:20.897Z,102075.63
2023-04-05T14:14:48.726Z,102079.69
2023-04-05T14:17:16.651Z,102083.63
2023-04-05T14:19:45.934Z,102086.44
2023-04-05T14:22:13.835Z,102087.03
2023-04-05T14:24:41.682Z,102074.44
2023-04-05T14:27:09.555Z,102083.47
2023-04-05T14:29:37.399Z,102081.09
2023-04-05T14:32:05.889Z,102087.00
2023-04-05T14:34:33.844Z,102079.66
2023-04-05T14:37:04.169Z,102079.75
2023-04-05T14:39:32.074Z,102072.94
2023-04-05T14:41:59.995Z,102073.44
2023-04-05T14:44:27.972Z,102068.66
2023-04-05T14:46:55.947Z,102070.97
2023-04-05T14:49:23.824Z,102077.16
2023-04-05T14:51:51.753Z,102069.25
2023-04-05T14:54:21.016Z,102067.69
2023-04-05T14:56:48.863Z,102074.50
2023-04-05T14:59:16.975Z,102086.41
2023-04-05T15:01:46.995Z,102075.91
2023-04-05T15:04:14.998Z,102074.72
2023-04-05T15:06:43.102Z,102068.72
2023-04-05T15:09:10.970Z,102064.50
2023-04-05T15:11:40.767Z,102059.44
2023-04-05T15:14:13.401Z,102072.78
2023-04-05T15:16:46.114Z,102069.22
2023-04-05T15:19:13.968Z,102058.81
2023-04-05T15:21:43.883Z,102058.19
2023-04-05T15:24:12.422Z,102045.53
2023-04-05T15:26:41.855Z,102049.50
2023-04-05T15:29:09.712Z,102042.75
2023-04-05T15:31:37.600Z,102037.50
2023-04-05T15:34:07.096Z,102041.06
2023-04-05T15:36:36.249Z,102040.25
2023-04-05T15:39:05.165Z,102052.69
2023-04-05T15:41:34.561Z,102045.19
2023-04-05T15:44:04.076Z,102056.72
2023-04-05T15:46:32.126Z,102062.28
2023-04-05T15:49:00.474Z,102057.03
2023-04-05T15:51:28.641Z,102059.13
2023-04-05T15:53:56.588Z,102042.31
2023-04-05T15:56:24.398Z,102043.44
2023-04-05T15:58:52.306Z,102053.38
2023-04-05T16:01:21.575Z,102053.19
2023-04-05T16:03:50.037Z,102053.69
2023-04-05T16:06:17.960Z,102053.53
2023-04-05T16:08:46.059Z,102055.06
2023-04-05T16:11:13.891Z,102061.56
2023-04-05T16:13:41.728Z,102063.19
2023-04-05T16:16:09.887Z,102062.16
2023-04-05T16:18:39.160Z,102049.59
2023-04-05T16:21:07.313Z,102059.56
2023-04-05T16:23:35.473Z,102050.97
2023-04-05T16:26:03.736Z,102051.72
2023-04-05T16:28:31.851Z,102051.69
2023-04-05T16:31:00.104Z,102047.34
2023-04-05T16:33:28.214Z,102048.72
2023-04-05T16:35:57.728Z,102042.75
2023-04-05T16:38:26.243Z,102041.63
2023-04-05T16:40:54.089Z,102046.81
2023-04-05T16:43:22.014Z,102047.47
2023-04-05T16:45:49.896Z,102045.34
2023-04-05T16:48:17.764Z,102043.88
2023-04-05T16:50:45.794Z,102037.41
2023-04-05T16:53:16.038Z,102043.31
2023-04-05T16:55:43.889Z,102037.59
2023-04-05T16:58:13.606Z,102039.94
2023-04-05T17:00:41.477Z,102033.41
2023-04-05T17:03:09.370Z,102043.53
2023-04-05T17:05:38.288Z,102046.59
2023-04-05T17:08:09.116Z,102047.53
2023-04-05T17:10:38.363Z,102038.88
2023-04-05T17:13:07.031Z,102038.69
2023-04-05T17:15:34.919Z,102054.03
2023-04-05T17:18:02.873Z,102042.81
2023-04-05T17:20:31.144Z,102040.38
2023-04-05T17:22:59.546Z,102046.06
2023-04-05T17:25:27.467Z,102050.28
2023-04-05T17:27:56.700Z,102049.56
2023-04-05T17:30:24.539Z,102047.91
2023-04-05T17:32:52.957Z,102053.75
2023-04-05T17:35:20.978Z,102038.50
2023-04-05T17:37:48.961Z,102047.31
2023-04-05T17:40:18.547Z,102048.38
2023-04-05T17:42:46.515Z,102044.75
2023-04-05T17:45:15.735Z,102031.88
2023-04-05T17:47:43.699Z,102033.47
2023-04-05T17:50:12.332Z,102039.00
2023-04-05T17:52:40.495Z,102037.06
2023-04-05T17:55:08.962Z,102039.47
2023-04-05T17:57:36.883Z,102035.16
2023-04-05T18:00:05.338Z,102037.72
2023-04-05T18:02:37.132Z,102041.16
2023-04-05T18:05:05.451Z,102036.75
2023-04-05T18:07:36.321Z,102044.97
2023-04-05T18:10:04.344Z,102042.00
2023-04-05T18:12:32.402Z,102049.66
2023-04-05T18:15:00.375Z,102048.47
2023-04-05T18:17:28.476Z,102050.13
2023-04-05T18:19:57.817Z,102050.13
2023-04-05T18:22:26.136Z,102053.72
2023-04-05T18:24:54.185Z,102056.91
2023-04-05T18:27:22.056Z,102058.41
2023-04-05T18:29:49.983Z,102059.22
2023-04-05T18:32:17.961Z,102063.78
2023-04-05T18:34:46.110Z,102061.50
2023-04-05T18:37:15.409Z,102065.22
2023-04-05T18:39:43.222Z,102058.69
2023-04-05T18:42:11.276Z,102065.72
2023-04-05T18:44:39.151Z,102071.78
2023-04-05T18:47:07.612Z,102078.38
2023-04-05T18:49:37.045Z,102079.28
2023-04-05T18:52:04.909Z,102075.78
2023-04-05T18:54:34.179Z,102084.59
2023-04-05T18:57:02.009Z,102085.03
2023-04-05T18:59:30.573Z,102088.00
2023-04-05T19:01:58.481Z,102091.00
2023-04-05T19:04:26.512Z,102091.97
2023-04-05T19:06:54.356Z,102098.38
2023-04-05T19:09:22.652Z,102097.03
2023-04-05T19:11:52.015Z,102097.53
2023-04-05T19:14:19.901Z,102106.06
2023-04-05T19:16:47.751Z,102108.91
2023-04-05T19:19:15.910Z,102110.59
2023-04-05T19:21:43.840Z,102113.13
2023-04-05T19:24:14.001Z,102109.19
2023-04-05T19:26:42.086Z,102111.91
2023-04-05T19:29:11.523Z,102105.44
2023-04-05T19:31:40.011Z,102101.53
2023-04-05T19:34:08.639Z,102103.91
2023-04-05T19:36:37.284Z,102101.53
2023-04-05T19:39:06.432Z,102100.47
2023-04-05T19:41:34.600Z,102098.47
2023-04-05T19:44:03.169Z,102101.38
2023-04-05T19:46:33.713Z,102095.63
2023-04-05T19:49:08.528Z,102102.69
2023-04-05T19:51:36.964Z,102094.88
2023-04-05T19:54:08.971Z,102102.31
2023-04-05T19:56:39.014Z,102107.50
2023-04-05T19:59:28.223Z,102094.56
2023-04-05T20:01:58.824Z,102098.28
2023-04-05T20:04:28.134Z,102097.97
2023-04-05T20:06:56.679Z,102098.44
2023-04-05T20:09:26.263Z,102097.50
2023-04-05T20:11:56.804Z,102095.00
2023-04-05T20:14:28.691Z,102085.69
2023-04-05T20:16:59.457Z,102094.03
2023-04-05T20:19:30.676Z,102087.28
2023-04-05T20:21:59.488Z,102086.94
2023-04-05T20:24:29.991Z,102081.16
2023-04-05T20:26:57.896Z,102089.72
2023-04-05T20:29:32.213Z,102071.72
2023-04-05T20:32:02.495Z,102072.63
2023-04-05T20:34:32.901Z,102068.19
2023-04-05T20:37:01.918Z,102072.84
2023-04-05T20:39:30.995Z,102069.47
2023-04-05T20:41:58.952Z,102076.63
2023-04-05T20:44:27.023Z,102070.06
2023-04-05T20:46:57.140Z,102070.50
2023-04-05T20:49:26.658Z,102074.25
2023-04-05T20:51:55.775Z,102057.41
2023-04-05T20:54:24.202Z,102059.19
2023-04-05T20:56:52.076Z,102057.47
2023-04-05T20:59:19.955Z,102044.16
2023-04-05T21:01:49.134Z,102062.44
2023-04-05T21:04:17.249Z,102043.09
2023-04-05T21:06:46.456Z,102045.56
2023-04-05T21:09:14.287Z,102057.03
2023-04-05T21:11:42.139Z,102059.06
2023-04-05T21:14:10.015Z,102064.16
2023-04-05T21:16:37.847Z,102050.41
2023-04-05T21:19:05.798Z,102043.19
2023-04-05T21:21:33.689Z,102049.47
2023-04-05T21:24:02.900Z,102043.56
2023-04-05T21:26:30.741Z,102031.16
2023-04-05T21:28:58.559Z,102049.38
2023-04-05T21:31:27.123Z,102041.31
2023-04-05T21:33:55.030Z,102042.84
2023-04-05T21:36:22.824Z,102044.22
2023-04-05T21:38:51.344Z,102043.53
2023-04-05T21:41:21.228Z,102027.50
2023-04-05T21:43:49.029Z,102036.66
2023-04-05T21:48:44.985Z,102019.19
2023-04-05T21:51:12.823Z,102008.91
2023-04-05T21:53:40.645Z,102014.72
2023-04-05T21:56:08.473Z,102008.47
2023-04-05T21:58:37.708Z,101999.69
2023-04-05T22:01:05.864Z,101994.34
2023-04-05T22:03:33.735Z,102002.66
2023-04-05T22:06:02.221Z,101997.59
2023-04-05T22:08:30.037Z,102005.34
2023-04-05T22:10:57.894Z,101984.19
2023-04-05T22:13:25.783Z,101977.91
2023-04-05T22:15:54.987Z,101969.38
2023-04-05T22:18:25.428Z,101965.56
2023-04-05T22:20:53.281Z,101954.38
2023-04-05T22:23:21.392Z,101953.81
2023-04-05T22:25:49.179Z,101941.47
2023-04-05T22:28:16.981Z,101936.91
2023-04-05T22:30:44.809Z,101935.75
2023-04-05T22:33:14.062Z,101935.16
2023-04-05T22:35:42.447Z,101930.84
2023-04-05T22:38:10.310Z,101931.25
2023-04-05T22:40:38.163Z,101925.03
2023-04-05T22:43:06.498Z,101944.81
2023-04-05T22:45:34.405Z,101948.56
2023-04-05T22:48:02.243Z,101933.63
2023-04-05T22:50:31.550Z,101934.81
2023-04-05T22:52:59.520Z,101951.06
2023-04-05T22:55:27.337Z,101950.59
2023-04-05T22:57:55.135Z,101947.78
2023-04-05T23:00:23.251Z,101928.81
2023-04-05T23:02:51.136Z,101926.78
2023-04-05T23:05:19.028Z,101920.03
2023-04-05T23:07:48.300Z,101930.91
2023-04-05T23:10:16.263Z,101935.00
2023-04-05T23:12:44.397Z,101924.50
2023-04-05T23:15:13.423Z,101931.53
2023-04-05T23:17:41.522Z,101922.81
2023-04-05T23:20:10.345Z,101943.50
2023-04-05T23:22:38.140Z,101943.81
2023-04-05T23:25:08.881Z,101937.03
2023-04-05T23:27:36.720Z,101941.84
2023-04-05T23:30:04.971Z,101946.41
2023-04-05T23:32:32.806Z,101929.44
2023-04-05T23:35:00.629Z,101913.38
2023-04-05T23:37:28.474Z,101917.66
2023-04-05T23:39:56.375Z,101900.50
2023-04-05T23:42:25.714Z,101901.75
2023-04-05T23:44:53.511Z,101896.50
2023-04-05T23:47:21.283Z,101896.72
2023-04-05T23:49:49.104Z,101893.53
2023-04-05T23:52:16.931Z,101903.00
2023-04-05T23:54:44.746Z,101907.41
2023-04-05T23:57:12.591Z,101923.34
2023-04-05T23:59:41.828Z,101923.28
